createdAt,value
2023-01-06T00:00:58.330Z,11.2
2023-01-06T00:06:50.635Z,11.1
2023-01-06T00:12:42.093Z,10.9
2023-01-06T00:18:32.747Z,11.1
2023-01-06T00:24:24.640Z,11.1
2023-01-06T00:30:16.626Z,11.1
2023-01-06T00:36:08.304Z,11.2
2023-01-06T00:42:00.439Z,11.1
2023-01-06T00:47:51.714Z,11.1
2023-01-06T00:53:43.293Z,10.9
2023-01-06T00:59:34.448Z,11
2023-01-06T01:05:25.278Z,11
2023-01-06T01:11:16.612Z,11.1
2023-01-06T01:17:07.273Z,11.1
2023-01-06T01:22:59.492Z,10.9
2023-01-06T01:28:50.291Z,11
2023-01-06T01:34:41.332Z,11.1
2023-01-06T01:40:34.210Z,11.1
2023-01-06T01:46:25.738Z,11
2023-01-06T01:52:16.970Z,11.1
2023-01-06T01:58:08.112Z,11
2023-01-06T02:03:58.648Z,11
2023-01-06T02:09:50.665Z,10.5
2023-01-06T02:15:58.359Z,10.8
2023-01-06T02:21:53.768Z,10.8
2023-01-06T02:27:45.219Z,10.8
2023-01-06T02:33:36.291Z,10.8
2023-01-06T02:39:28.606Z,10.8
2023-01-06T02:45:19.608Z,10.7
2023-01-06T02:51:11.611Z,10.8
2023-01-06T02:57:02.507Z,10.8
2023-01-06T03:02:52.693Z,10.9
2023-01-06T03:08:43.370Z,10.6
2023-01-06T03:14:38.300Z,10.8
2023-01-06T03:20:28.687Z,10.6
2023-01-06T03:26:21.227Z,10.7
2023-01-06T03:32:13.557Z,10.8
2023-01-06T03:38:04.498Z,10.6
2023-01-06T03:43:55.208Z,10.7
2023-01-06T03:49:47.306Z,10.7
2023-01-06T03:55:38.191Z,10.6
2023-01-06T04:01:29.445Z,10.7
2023-01-06T04:07:20.750Z,10.6
2023-01-06T04:13:12.573Z,10.7
2023-01-06T04:19:03.794Z,10.7
2023-01-06T04:24:55.034Z,10.7
2023-01-06T04:30:46.233Z,10.7
2023-01-06T04:36:37.930Z,10.8
2023-01-06T04:42:28.507Z,10.7
2023-01-06T04:48:20.660Z,10.6
2023-01-06T04:54:12.904Z,10.7
2023-01-06T05:00:05.594Z,10.7
2023-01-06T05:05:56.945Z,10.6
2023-01-06T05:11:48.877Z,10.7
2023-01-06T05:17:41.178Z,10.6
2023-01-06T05:23:32.135Z,10.6
2023-01-06T05:29:24.344Z,10.6
2023-01-06T05:35:16.267Z,10.6
2023-01-06T05:41:07.430Z,10.6
2023-01-06T05:48:06.669Z,10.6
2023-01-06T05:53:56.442Z,10.7
2023-01-06T05:59:47.656Z,10.5
2023-01-06T06:05:38.711Z,10.6
2023-01-06T06:11:30.046Z,10.5
2023-01-06T06:17:21.751Z,10.6
2023-01-06T06:23:13.249Z,10.6
2023-01-06T06:29:05.578Z,10.6
2023-01-06T06:34:57.422Z,10.6
2023-01-06T06:40:49.800Z,10.6
2023-01-06T06:46:41.444Z,10.6
2023-01-06T06:52:32.503Z,10.6
2023-01-06T06:58:24.015Z,10.7
2023-01-06T07:04:15.416Z,10.7
2023-01-06T07:10:09.184Z,10.6
2023-01-06T07:16:01.154Z,10.6
2023-01-06T07:21:52.818Z,10.6
2023-01-06T07:27:45.732Z,10.6
2023-01-06T07:33:36.482Z,10.7
2023-01-06T07:39:27.388Z,10.7
2023-01-06T07:45:18.877Z,10.6
2023-01-06T07:51:10.938Z,10.7
2023-01-06T07:57:03.220Z,10.7
2023-01-06T08:02:55.288Z,10.6
2023-01-06T08:08:47.387Z,10.6
2023-01-06T08:14:37.800Z,10.7
2023-01-06T08:20:28.864Z,10.6
2023-01-06T08:26:20.186Z,10.6
2023-01-06T08:32:11.243Z,10.6
2023-01-06T08:38:03.586Z,10.7
2023-01-06T08:43:54.438Z,10.8
2023-01-06T08:49:47.589Z,10.8
2023-01-06T08:55:39.691Z,10.8
2023-01-06T09:01:31.780Z,10.9
2023-01-06T09:07:23.684Z,10.9
2023-01-06T09:13:14.716Z,11
2023-01-06T09:19:06.572Z,11
2023-01-06T09:25:04.595Z,11.1
2023-01-06T09:30:55.809Z,11.1
2023-01-06T09:36:47.032Z,11.1
2023-01-06T09:42:38.071Z,11.2
2023-01-06T09:48:28.546Z,11.3
2023-01-06T09:54:19.622Z,11.4
2023-01-06T10:00:11.848Z,11.5
2023-01-06T10:06:07.013Z,11.6
2023-01-06T10:11:58.827Z,11.7
2023-01-06T10:17:49.452Z,11.7
2023-01-06T10:23:40.822Z,11.8
2023-01-06T10:29:32.179Z,11.9
2023-01-06T10:35:23.375Z,11.9
2023-01-06T10:41:13.819Z,12
2023-01-06T10:47:05.230Z,12.1
2023-01-06T10:52:57.506Z,12.2
2023-01-06T10:58:48.769Z,12.3
2023-01-06T11:04:41.011Z,12.5
2023-01-06T11:10:31.448Z,12.5
2023-01-06T11:16:22.122Z,12.5
2023-01-06T11:22:12.968Z,12.6
2023-01-06T11:28:06.920Z,12.6
2023-01-06T11:33:57.644Z,12.6
2023-01-06T11:39:55.743Z,12.6
2023-01-06T11:45:58.547Z,12.6
2023-01-06T11:51:50.376Z,12.6
2023-01-06T11:57:41.087Z,12.7
2023-01-06T12:03:34.734Z,12.9
2023-01-06T12:09:25.697Z,12.9
2023-01-06T12:15:16.420Z,12.9
2023-01-06T12:21:07.791Z,12.9
2023-01-06T12:26:58.519Z,12.9
2023-01-06T12:32:48.685Z,13.2
2023-01-06T12:38:39.691Z,13.5
2023-01-06T12:44:30.066Z,13.4
2023-01-06T12:50:20.632Z,13.3
2023-01-06T12:56:11.417Z,13.2
2023-01-06T13:02:02.399Z,13.3
2023-01-06T13:07:55.257Z,13.2
2023-01-06T13:13:45.427Z,13.1
2023-01-06T13:19:37.749Z,13
2023-01-06T13:37:09.185Z,13
2023-01-06T13:42:56.735Z,13
2023-01-06T13:48:46.272Z,13
2023-01-06T14:02:03.257Z,13
2023-01-06T14:07:53.705Z,13
2023-01-06T14:13:45.178Z,13
2023-01-06T14:19:37.076Z,12.9
2023-01-06T14:26:40.970Z,12.9
2023-01-06T14:32:34.017Z,13
2023-01-06T14:38:25.955Z,12.9
2023-01-06T20:01:16.962Z,11.4
2023-01-06T20:14:16.566Z,11.4
2023-01-06T20:20:15.425Z,11.5
2023-01-06T20:26:08.461Z,11.5
2023-01-06T20:32:05.043Z,11.5
2023-01-06T20:37:55.186Z,11.5
2023-01-06T20:43:45.993Z,11.4
2023-01-06T20:49:37.494Z,11.4
2023-01-06T20:55:31.474Z,11.4
2023-01-06T21:07:49.897Z,11.4
2023-01-06T21:13:59.613Z,11.4
2023-01-06T21:19:59.836Z,11.4
2023-01-06T21:31:47.035Z,11.5
2023-01-06T21:38:00.989Z,11.5
2023-01-06T21:43:58.754Z,11.5
2023-01-06T21:49:50.748Z,11.4
2023-01-06T21:55:41.469Z,11.4
2023-01-06T22:01:37.562Z,11.4
2023-01-06T22:14:19.293Z,11.5
2023-01-06T22:20:15.537Z,11.5
2023-01-06T22:26:07.369Z,11.5
2023-01-06T22:31:59.936Z,11.5
2023-01-06T22:37:53.900Z,11.5
2023-01-06T22:43:46.904Z,11.3
2023-01-06T22:49:45.627Z,11.2
2023-01-06T22:55:39.566Z,11.2
2023-01-06T23:01:32.397Z,11.1
2023-01-06T23:32:55.708Z,11
2023-01-06T23:45:23.500Z,11
